Time;durP1;ratioP1;P1;durP2;ratioP2;P2;SDS_P1;SDS_P2;PMS_P1;PMS_P2;Temp;Humidity;BMP_temperature;BMP_pressure;BME280_temperature;BME280_humidity;BME280_pressure;Samples;Min_cycle;Max_cycle;Signal;HPM_P1;HPM_P2
2021/12/19 00:02:40;;;;;;;45.00;24.63;;;;;;;;;;5031839;28;20419;-52
2021/12/19 00:10:23;;;;;;;50.10;23.07;;;;;;;;;;5032076;28;20403;-50
2021/12/19 00:12:50;;;;;;;50.87;23.00;;;;;;;;;;5031682;28;20437;-50
2021/12/19 00:15:16;;;;;;;47.67;24.27;;;;;;;;;;5031153;28;20400;-50
2021/12/19 00:17:42;;;;;;;54.77;24.13;;;;;;;;;;5031653;28;20948;-50
2021/12/19 00:20:08;;;;;;;53.00;25.43;;;;;;;;;;5031745;28;20498;-50
2021/12/19 00:22:34;;;;;;;52.87;25.00;;;;;;;;;;5031700;28;20442;-50
2021/12/19 00:25:00;;;;;;;47.67;23.03;;;;;;;;;;5030816;28;20509;-49
2021/12/19 00:27:27;;;;;;;52.10;25.37;;;;;;;;;;5031429;28;20451;-49
2021/12/19 00:29:53;;;;;;;40.87;22.83;;;;;;;;;;5031776;28;20411;-50
2021/12/19 00:32:19;;;;;;;48.07;22.80;;;;;;;;;;5031609;28;20428;-50
2021/12/19 00:34:45;;;;;;;44.83;23.80;;;;;;;;;;5030875;28;20399;-51
2021/12/19 00:37:11;;;;;;;51.20;26.20;;;;;;;;;;5032155;28;21002;-51
2021/12/19 00:39:37;;;;;;;47.50;24.30;;;;;;;;;;5035411;28;20403;-50
2021/12/19 00:42:08;;;;;;;45.30;24.30;;;;;;;;;;5035363;28;20889;-49
2021/12/19 00:44:37;;;;;;;52.93;24.33;;;;;;;;;;5034805;28;20407;-49
2021/12/19 00:47:07;;;;;;;46.80;23.73;;;;;;;;;;5035115;28;20475;-51
2021/12/19 00:49:35;;;;;;;46.87;25.30;;;;;;;;;;5035377;28;20400;-50
2021/12/19 00:52:02;;;;;;;46.67;23.40;;;;;;;;;;5035232;28;20426;-49
2021/12/19 00:54:28;;;;;;;43.77;23.20;;;;;;;;;;5034838;28;20814;-50
2021/12/19 00:59:58;;;;;;;59.80;26.63;;;;;;;;;;5035194;28;20381;-51
2021/12/19 01:02:24;;;;;;;53.03;25.63;;;;;;;;;;5034914;28;20408;-51
2021/12/19 01:04:50;;;;;;;58.97;26.70;;;;;;;;;;5034292;28;20415;-51
2021/12/19 01:07:16;;;;;;;56.27;25.80;;;;;;;;;;5034791;28;20459;-52
2021/12/19 01:09:42;;;;;;;54.97;28.00;;;;;;;;;;5034923;28;20437;-51
2021/12/19 01:12:11;;;;;;;46.03;23.10;;;;;;;;;;5034903;28;21089;-50
2021/12/19 01:14:38;;;;;;;54.00;26.43;;;;;;;;;;5034269;28;20492;-50
2021/12/19 01:17:05;;;;;;;52.90;22.50;;;;;;;;;;5034554;28;20487;-50
2021/12/19 01:19:31;;;;;;;45.17;21.67;;;;;;;;;;5034753;28;20499;-49
2021/12/19 01:21:57;;;;;;;36.33;20.53;;;;;;;;;;5034684;28;20411;-49
2021/12/19 01:24:23;;;;;;;42.50;19.97;;;;;;;;;;5034626;28;20403;-50
2021/12/19 01:26:49;;;;;;;37.43;19.30;;;;;;;;;;5033526;28;20462;-50
2021/12/19 01:29:15;;;;;;;39.40;19.60;;;;;;;;;;5034200;28;20422;-50
2021/12/19 01:31:41;;;;;;;42.87;18.40;;;;;;;;;;5034488;28;20821;-50
2021/12/19 01:34:12;;;;;;;40.33;19.70;;;;;;;;;;5034519;28;20465;-49
2021/12/19 01:36:38;;;;;;;40.20;18.97;;;;;;;;;;5033780;28;20938;-50
2021/12/19 01:39:04;;;;;;;36.83;20.50;;;;;;;;;;5034466;28;20412;-51
2021/12/19 01:41:30;;;;;;;40.13;18.70;;;;;;;;;;5034350;28;20932;-50
2021/12/19 01:43:56;;;;;;;32.37;19.70;;;;;;;;;;5034310;28;20447;-49
2021/12/19 01:46:22;;;;;;;40.23;18.63;;;;;;;;;;5033338;28;20457;-50
2021/12/19 01:48:48;;;;;;;37.27;20.77;;;;;;;;;;5033227;28;20432;-49
2021/12/19 01:51:14;;;;;;;42.47;19.23;;;;;;;;;;5034150;28;20442;-49
2021/12/19 01:53:40;;;;;;;34.07;18.67;;;;;;;;;;5034159;28;20400;-50
2021/12/19 01:56:07;;;;;;;38.70;21.60;;;;;;;;;;5033293;28;20868;-50
2021/12/19 01:58:33;;;;;;;39.30;20.90;;;;;;;;;;5034122;28;20415;-50
2021/12/19 02:01:00;;;;;;;41.60;20.50;;;;;;;;;;5033319;28;20922;-52
2021/12/19 02:03:26;;;;;;;40.50;18.67;;;;;;;;;;5033481;28;20931;-50
2021/12/19 02:05:52;;;;;;;36.97;20.83;;;;;;;;;;5032315;28;20497;-50
2021/12/19 02:08:18;;;;;;;42.33;20.73;;;;;;;;;;5033013;28;20494;-50
2021/12/19 02:10:45;;;;;;;46.60;21.40;;;;;;;;;;5033757;28;20847;-50
2021/12/19 02:13:12;;;;;;;49.77;21.93;;;;;;;;;;5033676;28;20462;-50
2021/12/19 02:15:38;;;;;;;49.57;21.87;;;;;;;;;;5033032;28;20427;-50
2021/12/19 02:18:09;;;;;;;45.60;21.80;;;;;;;;;;5033655;28;20411;-50
2021/12/19 02:20:40;;;;;;;44.43;20.53;;;;;;;;;;5033675;28;20427;-51
2021/12/19 02:23:06;;;;;;;44.10;20.97;;;;;;;;;;5033558;28;20407;-50
2021/12/19 02:25:33;;;;;;;52.77;20.80;;;;;;;;;;5032785;28;20425;-50
2021/12/19 02:27:59;;;;;;;42.57;21.40;;;;;;;;;;5033268;28;20521;-49
2021/12/19 02:30:25;;;;;;;46.90;22.20;;;;;;;;;;5033419;28;20896;-49
2021/12/19 02:32:51;;;;;;;39.63;19.60;;;;;;;;;;5033416;28;20621;-50
2021/12/19 02:35:23;;;;;;;41.40;21.73;;;;;;;;;;5032772;28;20414;-49
2021/12/19 02:48:10;;;;;;;36.40;20.20;;;;;;;;;;5032376;28;20411;-49
2021/12/19 02:48:27;;;;;;;39.97;22.50;;;;;;;;;;5033064;28;20414;-51
2021/12/19 02:50:54;;;;;;;44.00;21.60;;;;;;;;;;5033010;28;20398;-50
2021/12/19 02:53:47;;;;;;;40.80;20.43;;;;;;;;;;5033048;28;20404;-49
2021/12/19 02:56:13;;;;;;;39.50;20.97;;;;;;;;;;5030199;28;20505;-50
2021/12/19 02:58:40;;;;;;;43.80;20.33;;;;;;;;;;5032974;28;20876;-50
2021/12/19 03:01:09;;;;;;;41.43;18.70;;;;;;;;;;5032595;28;20676;-50
2021/12/19 03:03:35;;;;;;;42.50;20.45;;;;;;;;;;5032816;28;20492;-50
2021/12/19 03:06:01;;;;;;;38.87;19.07;;;;;;;;;;5031992;28;20258;-51
2021/12/19 03:08:27;;;;;;;39.50;19.90;;;;;;;;;;5032753;28;20404;-49
2021/12/19 03:19:09;;;;;;;33.87;15.67;;;;;;;;;;5032540;28;20467;-50
2021/12/19 03:21:35;;;;;;;34.87;17.23;;;;;;;;;;5032444;28;20412;-51
2021/12/19 03:24:01;;;;;;;35.10;16.57;;;;;;;;;;5032423;28;21050;-49
2021/12/19 03:26:27;;;;;;;34.17;16.40;;;;;;;;;;5031498;28;20504;-50
2021/12/19 03:28:53;;;;;;;31.10;15.20;;;;;;;;;;5032226;28;20427;-49
2021/12/19 03:31:19;;;;;;;25.50;12.40;;;;;;;;;;5032345;28;20413;-50
2021/12/19 03:33:44;;;;;;;28.43;13.90;;;;;;;;;;5032293;28;20405;-50
2021/12/19 03:36:10;;;;;;;23.40;12.80;;;;;;;;;;5031481;28;20492;-49
2021/12/19 03:38:41;;;;;;;23.03;14.20;;;;;;;;;;5032217;28;20408;-50
2021/12/19 03:43:39;;;;;;;28.73;13.57;;;;;;;;;;5032379;28;20441;-49
2021/12/19 03:46:05;;;;;;;19.07;11.13;;;;;;;;;;5031316;28;20836;-50
2021/12/19 03:48:31;;;;;;;16.83;9.20;;;;;;;;;;5032167;28;20897;-49
2021/12/19 03:50:58;;;;;;;14.17;7.77;;;;;;;;;;5032095;28;20437;-50
2021/12/19 03:53:24;;;;;;;19.07;10.70;;;;;;;;;;5031965;28;20493;-49
2021/12/19 03:55:51;;;;;;;12.90;7.67;;;;;;;;;;5031303;28;20507;-49
2021/12/19 03:58:18;;;;;;;16.67;9.50;;;;;;;;;;5031906;28;20415;-49
2021/12/19 04:00:45;;;;;;;14.40;8.50;;;;;;;;;;5031962;28;20894;-49
2021/12/19 04:03:17;;;;;;;12.83;8.47;;;;;;;;;;5031890;28;20398;-50
2021/12/19 04:05:43;;;;;;;16.80;8.67;;;;;;;;;;5031040;28;20450;-50
2021/12/19 04:08:09;;;;;;;16.80;8.60;;;;;;;;;;5031928;28;20877;-50
2021/12/19 04:10:35;;;;;;;14.17;8.73;;;;;;;;;;5031885;28;20404;-49
2021/12/19 04:13:02;;;;;;;14.70;8.80;;;;;;;;;;5031135;28;20763;-50
2021/12/19 04:15:28;;;;;;;15.63;8.67;;;;;;;;;;5031207;28;20426;-49
2021/12/19 04:17:54;;;;;;;17.35;9.60;;;;;;;;;;5031696;28;20417;-49
2021/12/19 04:20:20;;;;;;;15.03;8.80;;;;;;;;;;5031691;28;20214;-49
2021/12/19 04:22:47;;;;;;;14.33;9.03;;;;;;;;;;5031732;28;20491;-48
2021/12/19 04:25:13;;;;;;;12.73;8.43;;;;;;;;;;5029746;28;20465;-49
2021/12/19 04:27:39;;;;;;;16.33;8.63;;;;;;;;;;5031389;28;20463;-50
2021/12/19 04:30:06;;;;;;;13.25;8.68;;;;;;;;;;5031699;28;20394;-50
2021/12/19 04:32:37;;;;;;;16.37;8.47;;;;;;;;;;5031622;28;20538;-50
2021/12/19 04:35:04;;;;;;;22.40;9.47;;;;;;;;;;5030917;28;21090;-49
2021/12/19 04:37:59;;;;;;;15.90;8.90;;;;;;;;;;5031514;28;20399;-49
2021/12/19 04:41:02;;;;;;;15.30;7.80;;;;;;;;;;5031474;28;20991;-50
2021/12/19 04:56:47;;;;;;;18.80;9.03;;;;;;;;;;5030926;28;20426;-51
2021/12/19 05:16:00;;;;;;;16.50;8.77;;;;;;;;;;5032189;28;20575;-52
2021/12/19 05:18:30;;;;;;;15.60;8.60;;;;;;;;;;5033583;28;20475;-51
2021/12/19 05:21:04;;;;;;;18.10;9.07;;;;;;;;;;5032959;28;20410;-51
2021/12/19 05:25:56;;;;;;;17.73;9.87;;;;;;;;;;5035150;28;20282;-51
2021/12/19 05:28:22;;;;;;;15.10;7.80;;;;;;;;;;5035805;28;20431;-51
2021/12/19 05:30:48;;;;;;;17.37;7.63;;;;;;;;;;5036782;28;20400;-51
2021/12/19 05:33:14;;;;;;;17.30;9.13;;;;;;;;;;5036314;28;20494;-51
2021/12/19 05:46:39;;;;;;;20.08;10.30;;;;;;;;;;5035753;28;20525;-51
2021/12/19 05:49:06;;;;;;;24.40;13.10;;;;;;;;;;5036135;28;20176;-50
2021/12/19 05:51:33;;;;;;;20.67;12.13;;;;;;;;;;5036035;28;20249;-51
2021/12/19 05:53:59;;;;;;;22.15;13.05;;;;;;;;;;5035580;28;20651;-51
2021/12/19 05:56:25;;;;;;;18.60;12.05;;;;;;;;;;5035296;28;20611;-51
2021/12/19 05:58:51;;;;;;;20.53;10.73;;;;;;;;;;5036315;28;20167;-51
2021/12/19 06:01:17;;;;;;;15.87;10.00;;;;;;;;;;5036568;28;20477;-51
2021/12/19 06:03:43;;;;;;;23.13;11.00;;;;;;;;;;5036004;28;20403;-52
2021/12/19 06:06:09;;;;;;;20.25;11.90;;;;;;;;;;5034536;28;20451;-51
2021/12/19 06:08:35;;;;;;;21.40;12.00;;;;;;;;;;5035397;28;20176;-51
2021/12/19 06:11:01;;;;;;;28.70;12.90;;;;;;;;;;5035159;28;20411;-51
2021/12/19 06:13:27;;;;;;;24.60;12.33;;;;;;;;;;5035632;28;20452;-51
2021/12/19 06:15:55;;;;;;;22.03;11.53;;;;;;;;;;5034895;28;20422;-51
2021/12/19 06:18:21;;;;;;;22.27;12.00;;;;;;;;;;5036019;28;20426;-52
2021/12/19 06:20:47;;;;;;;25.80;13.15;;;;;;;;;;5036255;28;20398;-51
2021/12/19 06:23:13;;;;;;;23.80;11.37;;;;;;;;;;5035398;28;20171;-51
2021/12/19 06:25:45;;;;;;;21.47;10.70;;;;;;;;;;5034590;28;20812;-51
2021/12/19 06:28:16;;;;;;;20.25;12.13;;;;;;;;;;5034502;28;20997;-51
2021/12/19 06:30:42;;;;;;;18.58;10.68;;;;;;;;;;5035037;28;20214;-52
2021/12/19 06:33:08;;;;;;;18.50;9.90;;;;;;;;;;5034758;28;20195;-51
2021/12/19 06:35:34;;;;;;;16.15;9.10;;;;;;;;;;5033403;28;20421;-51
2021/12/19 06:38:00;;;;;;;19.23;8.70;;;;;;;;;;5034904;28;20547;-52
2021/12/19 06:40:26;;;;;;;15.97;7.57;;;;;;;;;;5034674;28;20168;-51
2021/12/19 06:42:52;;;;;;;11.35;7.50;;;;;;;;;;5035038;28;20825;-51
2021/12/19 06:45:19;;;;;;;10.10;6.50;;;;;;;;;;5034157;28;20172;-52
2021/12/19 06:47:45;;;;;;;11.65;6.93;;;;;;;;;;5033823;28;20319;-51
2021/12/19 06:50:12;;;;;;;8.30;5.50;;;;;;;;;;5034436;28;20214;-52
2021/12/19 06:52:38;;;;;;;11.32;7.00;;;;;;;;;;5034773;28;20165;-52
2021/12/19 06:55:04;;;;;;;14.90;8.13;;;;;;;;;;5033877;28;20179;-51
2021/12/19 06:57:30;;;;;;;13.73;8.95;;;;;;;;;;5034208;28;20728;-51
2021/12/19 06:59:56;;;;;;;12.00;8.10;;;;;;;;;;5033716;28;20212;-51
2021/12/19 07:02:23;;;;;;;14.33;8.20;;;;;;;;;;5033456;28;20171;-52
2021/12/19 07:04:49;;;;;;;17.73;9.07;;;;;;;;;;5032044;28;20418;-51
2021/12/19 07:07:15;;;;;;;11.30;7.30;;;;;;;;;;5033720;28;20278;-52
2021/12/19 07:09:41;;;;;;;13.10;7.90;;;;;;;;;;5033252;28;20824;-52
2021/12/19 07:12:07;;;;;;;10.33;6.77;;;;;;;;;;5033175;28;20474;-51
2021/12/19 07:14:33;;;;;;;13.23;6.78;;;;;;;;;;5032560;28;20403;-51
2021/12/19 07:16:59;;;;;;;11.60;6.93;;;;;;;;;;5033074;28;20656;-52
2021/12/19 07:19:25;;;;;;;12.02;6.22;;;;;;;;;;5032832;28;20407;-51
2021/12/19 07:21:51;;;;;;;11.13;7.45;;;;;;;;;;5033140;28;20586;-52
2021/12/19 07:24:17;;;;;;;17.23;8.13;;;;;;;;;;5033198;28;20203;-51
2021/12/19 07:26:43;;;;;;;11.10;6.87;;;;;;;;;;5033341;28;20233;-52
2021/12/19 07:29:10;;;;;;;13.17;8.17;;;;;;;;;;5033131;28;20414;-52
2021/12/19 07:31:37;;;;;;;8.20;6.82;;;;;;;;;;5032634;28;20399;-51
2021/12/19 07:34:04;;;;;;;13.80;8.43;;;;;;;;;;5032276;28;20166;-51
2021/12/19 07:36:38;;;;;;;13.40;7.97;;;;;;;;;;5031125;28;20423;-52
2021/12/19 07:39:12;;;;;;;20.53;8.23;;;;;;;;;;5032210;28;20514;-53
2021/12/19 07:41:39;;;;;;;14.60;7.65;;;;;;;;;;5032381;28;20472;-52
2021/12/19 07:44:07;;;;;;;11.77;7.57;;;;;;;;;;5032025;28;20545;-51
2021/12/19 07:46:33;;;;;;;12.32;8.38;;;;;;;;;;5030533;28;20225;-52
2021/12/19 07:48:59;;;;;;;13.03;7.87;;;;;;;;;;5031929;28;20250;-52
2021/12/19 07:51:25;;;;;;;15.97;8.93;;;;;;;;;;5032277;28;20395;-52
2021/12/19 07:53:51;;;;;;;13.07;7.47;;;;;;;;;;5032371;28;20411;-52
2021/12/19 07:56:17;;;;;;;12.20;8.33;;;;;;;;;;5031447;28;20465;-51
2021/12/19 07:58:42;;;;;;;11.73;7.50;;;;;;;;;;5032249;28;20410;-51
2021/12/19 08:01:08;;;;;;;13.33;8.70;;;;;;;;;;5031901;28;20446;-51
2021/12/19 08:03:34;;;;;;;13.20;8.97;;;;;;;;;;5032235;28;20419;-51
2021/12/19 08:06:00;;;;;;;14.40;8.97;;;;;;;;;;5030699;28;20438;-52
2021/12/19 08:08:29;;;;;;;14.80;8.20;;;;;;;;;;5032011;28;20407;-52
2021/12/19 08:13:39;;;;;;;11.60;6.90;;;;;;;;;;5032284;28;20666;-51
2021/12/19 08:16:05;;;;;;;15.03;7.37;;;;;;;;;;5031415;28;20191;-52
2021/12/19 08:18:31;;;;;;;12.90;7.75;;;;;;;;;;5032236;28;20407;-52
2021/12/19 08:20:57;;;;;;;10.30;7.00;;;;;;;;;;5032263;28;20176;-51
2021/12/19 08:23:23;;;;;;;16.10;7.67;;;;;;;;;;5032215;28;20416;-52
2021/12/19 08:25:49;;;;;;;12.77;7.57;;;;;;;;;;5031362;28;20458;-51
2021/12/19 08:28:15;;;;;;;11.17;7.30;;;;;;;;;;5031933;28;20459;-51
2021/12/19 08:30:41;;;;;;;13.00;7.53;;;;;;;;;;5032270;28;20556;-51
2021/12/19 08:33:07;;;;;;;13.30;7.57;;;;;;;;;;5031928;28;20407;-52
2021/12/19 08:35:33;;;;;;;13.27;7.47;;;;;;;;;;5031216;28;20965;-50
2021/12/19 08:37:59;;;;;;;12.40;6.85;;;;;;;;;;5031976;28;20486;-51
2021/12/19 08:40:27;;;;;;;11.87;7.17;;;;;;;;;;5031682;28;20246;-51
2021/12/19 08:42:53;;;;;;;11.87;6.93;;;;;;;;;;5031607;28;20403;-52
2021/12/19 08:45:19;;;;;;;13.97;7.87;;;;;;;;;;5030993;28;20529;-52
2021/12/19 08:47:45;;;;;;;16.10;8.70;;;;;;;;;;5031608;28;20469;-52
2021/12/19 08:50:11;;;;;;;16.77;8.27;;;;;;;;;;5032124;28;20403;-52
2021/12/19 08:52:38;;;;;;;15.13;7.70;;;;;;;;;;5031526;28;20411;-52
2021/12/19 08:55:05;;;;;;;14.57;8.07;;;;;;;;;;5030847;28;20461;-52
2021/12/19 08:57:30;;;;;;;17.20;8.63;;;;;;;;;;5029812;28;20510;-52
2021/12/19 08:59:57;;;;;;;15.07;8.63;;;;;;;;;;5024354;28;20500;-52
2021/12/19 09:02:23;;;;;;;20.37;10.63;;;;;;;;;;5035118;28;20466;-52
2021/12/19 09:04:49;;;;;;;15.63;9.20;;;;;;;;;;5034653;28;20398;-52
2021/12/19 09:07:17;;;;;;;13.43;7.40;;;;;;;;;;5034747;28;20473;-52
2021/12/19 09:09:43;;;;;;;16.60;8.53;;;;;;;;;;5034975;28;20410;-51
2021/12/19 09:12:09;;;;;;;15.33;8.80;;;;;;;;;;5026460;28;20505;-51
2021/12/19 09:14:35;;;;;;;16.73;8.53;;;;;;;;;;5014535;28;20412;-52
2021/12/19 09:17:02;;;;;;;15.77;9.40;;;;;;;;;;5015052;28;20427;-51
2021/12/19 09:19:28;;;;;;;19.07;9.60;;;;;;;;;;5015129;28;20439;-52
2021/12/19 09:21:54;;;;;;;16.30;9.23;;;;;;;;;;5014951;28;20885;-52
2021/12/19 09:24:20;;;;;;;11.80;7.40;;;;;;;;;;5014915;28;20412;-51
2021/12/19 09:26:47;;;;;;;17.43;8.70;;;;;;;;;;5014073;28;20472;-53
2021/12/19 09:29:13;;;;;;;18.87;8.27;;;;;;;;;;5014673;28;20955;-51
2021/12/19 09:31:39;;;;;;;18.97;9.50;;;;;;;;;;5014804;28;20408;-52
2021/12/19 09:34:06;;;;;;;16.60;9.00;;;;;;;;;;5015022;28;20408;-52
2021/12/19 09:36:32;;;;;;;18.93;8.87;;;;;;;;;;5014023;28;20534;-53
2021/12/19 09:38:58;;;;;;;20.83;9.70;;;;;;;;;;5014649;28;20425;-52
2021/12/19 09:41:29;;;;;;;22.23;10.20;;;;;;;;;;5014626;28;20961;-52
2021/12/19 09:44:02;;;;;;;20.60;10.10;;;;;;;;;;5018250;28;20486;-51
2021/12/19 09:46:29;;;;;;;20.13;10.50;;;;;;;;;;5019411;28;20473;-52
2021/12/19 09:48:55;;;;;;;25.40;11.13;;;;;;;;;;5013221;28;20161;-51
2021/12/19 09:51:21;;;;;;;19.30;10.25;;;;;;;;;;5012731;28;20404;-51
2021/12/19 09:53:47;;;;;;;18.57;10.67;;;;;;;;;;5012863;28;20188;-52
2021/12/19 09:56:13;;;;;;;16.20;9.20;;;;;;;;;;5013091;28;20462;-52
2021/12/19 09:58:40;;;;;;;14.77;7.43;;;;;;;;;;5014613;28;20407;-51
2021/12/19 10:01:07;;;;;;;13.80;7.93;;;;;;;;;;5014592;28;20406;-52
2021/12/19 10:03:35;;;;;;;8.47;6.70;;;;;;;;;;5014470;28;20171;-51
2021/12/19 10:06:18;;;;;;;12.87;7.37;;;;;;;;;;5013430;28;20428;-52
2021/12/19 10:08:45;;;;;;;12.57;7.20;;;;;;;;;;5014421;28;20755;-52
2021/12/19 10:14:24;;;;;;;12.47;7.80;;;;;;;;;;4934723;29;20479;-52
2021/12/19 10:16:50;;;;;;;17.07;8.77;;;;;;;;;;5003546;28;20436;-52
2021/12/19 10:19:16;;;;;;;10.03;6.93;;;;;;;;;;5014233;28;20412;-52
2021/12/19 10:21:42;;;;;;;10.60;7.17;;;;;;;;;;5014122;28;20801;-51
2021/12/19 10:24:10;;;;;;;7.63;5.40;;;;;;;;;;5014114;28;20456;-51
2021/12/19 10:26:40;;;;;;;5.33;4.20;;;;;;;;;;5013315;28;20455;-51
2021/12/19 10:29:06;;;;;;;5.67;4.57;;;;;;;;;;5014002;28;20432;-50
2021/12/19 10:31:32;;;;;;;5.43;4.17;;;;;;;;;;5013849;28;20395;-52
2021/12/19 10:33:58;;;;;;;5.00;4.50;;;;;;;;;;5013874;28;20435;-51
2021/12/19 10:36:24;;;;;;;6.23;3.90;;;;;;;;;;5012955;28;20435;-52
2021/12/19 10:38:52;;;;;;;6.60;3.50;;;;;;;;;;5014109;28;20405;-52
2021/12/19 10:41:20;;;;;;;3.60;3.30;;;;;;;;;;5013673;28;20422;-51
2021/12/19 10:43:57;;;;;;;3.47;3.17;;;;;;;;;;5013498;28;20435;-51
2021/12/19 10:46:30;;;;;;;3.50;3.30;;;;;;;;;;5012708;28;20463;-52
2021/12/19 10:48:57;;;;;;;3.57;3.27;;;;;;;;;;5013397;28;20405;-51
2021/12/19 10:51:24;;;;;;;4.87;2.90;;;;;;;;;;5015048;28;20396;-49
2021/12/19 10:53:52;;;;;;;3.77;3.27;;;;;;;;;;5014724;28;20928;-49
2021/12/19 10:56:18;;;;;;;3.50;3.20;;;;;;;;;;5014053;28;20424;-49
2021/12/19 10:58:47;;;;;;;2.33;2.13;;;;;;;;;;5014601;28;20405;-49
2021/12/19 11:01:17;;;;;;;3.20;3.00;;;;;;;;;;5015194;28;20411;-49
2021/12/19 11:03:45;;;;;;;3.33;3.03;;;;;;;;;;5014689;28;20903;-50
2021/12/19 11:06:18;;;;;;;3.20;2.40;;;;;;;;;;5013818;28;20425;-50
2021/12/19 11:08:44;;;;;;;2.40;2.20;;;;;;;;;;5014603;28;20401;-49
2021/12/19 11:11:11;;;;;;;2.53;2.33;;;;;;;;;;5014784;28;20550;-50
2021/12/19 11:13:37;;;;;;;4.07;2.47;;;;;;;;;;5014661;28;20400;-51
2021/12/19 11:16:03;;;;;;;10.80;2.93;;;;;;;;;;5013436;28;20474;-50
2021/12/19 11:18:30;;;;;;;3.50;3.27;;;;;;;;;;5014987;28;20441;-50
2021/12/19 11:20:56;;;;;;;3.60;3.30;;;;;;;;;;5014036;28;20419;-49
2021/12/19 11:23:22;;;;;;;4.30;3.90;;;;;;;;;;5014156;28;20953;-49
2021/12/19 11:25:48;;;;;;;7.30;5.67;;;;;;;;;;5013806;28;20777;-49
2021/12/19 11:28:14;;;;;;;8.07;5.30;;;;;;;;;;5013830;28;20465;-49
2021/12/19 11:30:40;;;;;;;5.27;4.50;;;;;;;;;;5014711;28;20408;-50
2021/12/19 11:33:25;;;;;;;6.60;5.07;;;;;;;;;;5014545;28;20764;-50
2021/12/19 11:35:54;;;;;;;5.57;4.90;;;;;;;;;;5013248;28;20427;-50
2021/12/19 11:38:21;;;;;;;7.43;4.67;;;;;;;;;;5014291;28;20958;-51
2021/12/19 11:40:47;;;;;;;3.90;3.50;;;;;;;;;;5014100;28;20402;-49
2021/12/19 11:43:14;;;;;;;4.37;3.50;;;;;;;;;;5014034;28;20411;-49
2021/12/19 11:46:10;;;;;;;4.63;3.50;;;;;;;;;;5013083;28;20447;-49
2021/12/19 11:48:32;;;;;;;5.37;3.10;;;;;;;;;;5013438;28;20425;-50
2021/12/19 11:51:03;;;;;;;3.83;3.43;;;;;;;;;;5013976;28;20456;-49
2021/12/19 11:53:29;;;;;;;4.80;3.30;;;;;;;;;;5013790;28;20412;-49
2021/12/19 11:56:06;;;;;;;3.00;2.80;;;;;;;;;;5013107;28;20433;-50
2021/12/19 11:58:44;;;;;;;3.20;2.80;;;;;;;;;;5014123;28;20491;-50
2021/12/19 12:01:12;;;;;;;3.17;2.90;;;;;;;;;;5014363;28;20695;-49
2021/12/19 12:03:52;;;;;;;3.40;2.90;;;;;;;;;;5013810;28;20414;-51
2021/12/19 12:06:20;;;;;;;3.60;3.20;;;;;;;;;;5012678;28;20467;-51
2021/12/19 12:09:04;;;;;;;4.53;3.00;;;;;;;;;;5017756;28;20427;-49
2021/12/19 12:11:31;;;;;;;3.83;3.43;;;;;;;;;;5027943;28;20435;-51
2021/12/19 12:14:15;;;;;;;5.40;4.90;;;;;;;;;;5032231;28;20393;-51
2021/12/19 12:16:50;;;;;;;8.90;6.00;;;;;;;;;;5031585;28;21206;-49
2021/12/19 12:19:16;;;;;;;6.20;4.90;;;;;;;;;;5033338;28;20399;-49
2021/12/19 12:21:48;;;;;;;4.93;4.40;;;;;;;;;;5032794;28;20435;-49
2021/12/19 12:24:14;;;;;;;5.10;4.60;;;;;;;;;;5033465;28;20422;-50
2021/12/19 12:26:53;;;;;;;6.40;4.73;;;;;;;;;;5032543;28;20459;-50
2021/12/19 12:29:18;;;;;;;5.10;4.60;;;;;;;;;;5033010;28;20481;-49
2021/12/19 12:31:45;;;;;;;4.00;3.70;;;;;;;;;;5032776;28;20401;-49
2021/12/19 12:34:12;;;;;;;5.23;3.83;;;;;;;;;;5035045;28;20487;-51
2021/12/19 12:36:38;;;;;;;4.53;4.03;;;;;;;;;;5036178;28;20420;-50
2021/12/19 12:39:09;;;;;;;3.40;3.20;;;;;;;;;;5037008;28;20430;-49
2021/12/19 12:44:11;;;;;;;3.80;3.50;;;;;;;;;;5037305;28;20424;-49
2021/12/19 12:46:37;;;;;;;4.13;2.90;;;;;;;;;;5035777;28;20448;-50
2021/12/19 12:49:03;;;;;;;3.20;2.90;;;;;;;;;;5037040;28;20397;-49
2021/12/19 12:51:32;;;;;;;2.67;2.53;;;;;;;;;;5037778;28;20888;-50
2021/12/19 12:54:03;;;;;;;2.40;2.30;;;;;;;;;;5037086;28;20404;-50
2021/12/19 12:56:37;;;;;;;3.20;3.00;;;;;;;;;;5036095;28;20449;-50
2021/12/19 12:59:04;;;;;;;4.93;3.80;;;;;;;;;;5037010;28;20395;-49
2021/12/19 13:01:30;;;;;;;4.00;3.60;;;;;;;;;;5037060;28;20810;-51
2021/12/19 13:04:00;;;;;;;4.83;3.60;;;;;;;;;;5036762;28;20810;-51
2021/12/19 13:06:35;;;;;;;4.30;3.90;;;;;;;;;;5035750;28;20547;-51
2021/12/19 13:09:27;;;;;;;3.60;3.30;;;;;;;;;;5036138;28;20434;-49
2021/12/19 13:11:58;;;;;;;3.97;3.43;;;;;;;;;;5034547;28;20910;-49
2021/12/19 13:14:26;;;;;;;5.77;4.10;;;;;;;;;;5036228;28;20896;-51
2021/12/19 13:16:52;;;;;;;7.00;3.40;;;;;;;;;;5036057;28;20434;-49
2021/12/19 13:19:38;;;;;;;3.90;3.50;;;;;;;;;;5036156;28;20454;-49
2021/12/19 13:22:05;;;;;;;6.97;3.37;;;;;;;;;;5036112;28;20918;-49
2021/12/19 13:24:34;;;;;;;7.30;4.00;;;;;;;;;;5035896;28;20418;-50
2021/12/19 13:27:08;;;;;;;6.57;3.73;;;;;;;;;;5036056;28;20521;-50
2021/12/19 13:29:34;;;;;;;5.70;4.20;;;;;;;;;;5036310;28;20423;-50
2021/12/19 13:32:19;;;;;;;5.50;4.37;;;;;;;;;;5036231;28;20922;-50
2021/12/19 13:34:46;;;;;;;6.07;4.77;;;;;;;;;;5035666;28;20493;-49
2021/12/19 13:37:12;;;;;;;8.10;5.17;;;;;;;;;;5035967;28;20432;-51
2021/12/19 13:39:38;;;;;;;7.47;6.67;;;;;;;;;;5035918;28;20725;-49
2021/12/19 13:42:11;;;;;;;10.50;8.10;;;;;;;;;;5036187;28;20884;-49
2021/12/19 13:44:37;;;;;;;10.77;8.20;;;;;;;;;;5034311;28;20407;-50
2021/12/19 13:47:13;;;;;;;9.47;8.17;;;;;;;;;;5035745;28;20456;-50
2021/12/19 13:49:40;;;;;;;11.33;8.40;;;;;;;;;;5036002;28;20433;-49
2021/12/19 13:52:07;;;;;;;9.57;8.03;;;;;;;;;;5035600;28;20404;-50
2021/12/19 13:54:38;;;;;;;11.60;8.10;;;;;;;;;;5035091;28;20455;-51
2021/12/19 13:57:15;;;;;;;10.07;8.40;;;;;;;;;;5035948;28;20769;-50
2021/12/19 13:59:41;;;;;;;11.87;8.47;;;;;;;;;;5035968;28;20935;-50
2021/12/19 14:02:10;;;;;;;10.27;8.77;;;;;;;;;;5035879;28;20411;-51
2021/12/19 14:04:36;;;;;;;9.30;7.67;;;;;;;;;;5034947;28;20904;-50
2021/12/19 14:07:06;;;;;;;11.23;7.80;;;;;;;;;;5035745;28;20468;-49
2021/12/19 14:09:38;;;;;;;8.27;6.20;;;;;;;;;;5035440;28;20453;-50
2021/12/19 14:12:11;;;;;;;18.60;7.00;;;;;;;;;;5035175;28;20403;-50
2021/12/19 14:14:37;;;;;;;5.60;5.07;;;;;;;;;;5033948;28;20438;-50
2021/12/19 14:17:07;;;;;;;7.97;6.03;;;;;;;;;;5035121;28;20845;-50
2021/12/19 14:19:39;;;;;;;8.00;4.70;;;;;;;;;;5035713;28;20406;-49
2021/12/19 14:22:05;;;;;;;10.00;5.17;;;;;;;;;;5035617;28;20884;-49
2021/12/19 14:24:42;;;;;;;3.67;3.27;;;;;;;;;;5034885;28;20505;-50
2021/12/19 14:27:08;;;;;;;11.00;4.30;;;;;;;;;;5035411;28;20509;-49
2021/12/19 14:29:34;;;;;;;6.20;4.83;;;;;;;;;;5034822;28;20833;-50
2021/12/19 14:32:02;;;;;;;5.40;4.67;;;;;;;;;;5011828;28;20413;-49
2021/12/19 14:34:29;;;;;;;7.10;5.70;;;;;;;;;;5015582;28;20405;-49
2021/12/19 14:36:56;;;;;;;9.40;5.23;;;;;;;;;;5015457;28;20505;-49
2021/12/19 14:39:24;;;;;;;5.20;4.70;;;;;;;;;;5015578;28;20404;-49
2021/12/19 14:41:50;;;;;;;6.20;4.80;;;;;;;;;;5015663;28;20404;-49
2021/12/19 14:44:20;;;;;;;6.83;5.60;;;;;;;;;;5015274;28;20501;-50
2021/12/19 14:46:46;;;;;;;8.43;6.07;;;;;;;;;;5012589;28;20509;-49
2021/12/19 14:49:13;;;;;;;5.50;4.77;;;;;;;;;;5013381;28;20443;-49
2021/12/19 14:51:39;;;;;;;12.03;5.50;;;;;;;;;;5015090;28;20407;-49
2021/12/19 14:54:05;;;;;;;7.97;6.03;;;;;;;;;;5015586;28;20435;-50
2021/12/19 14:56:31;;;;;;;6.80;4.50;;;;;;;;;;5014549;28;20424;-49
2021/12/19 14:58:59;;;;;;;6.97;4.67;;;;;;;;;;5015210;28;20975;-50
2021/12/19 15:01:27;;;;;;;5.37;4.83;;;;;;;;;;5014575;28;20495;-49
2021/12/19 15:03:55;;;;;;;6.50;4.90;;;;;;;;;;5014864;28;20619;-49
2021/12/19 15:06:23;;;;;;;4.53;4.13;;;;;;;;;;5013535;28;20222;-49
2021/12/19 15:08:49;;;;;;;7.27;5.30;;;;;;;;;;5014634;28;20409;-49
2021/12/19 15:11:15;;;;;;;8.60;4.80;;;;;;;;;;5014265;28;20449;-49
2021/12/19 15:13:42;;;;;;;7.10;4.97;;;;;;;;;;5014731;28;20408;-51
2021/12/19 15:16:08;;;;;;;9.73;5.07;;;;;;;;;;5013894;28;20193;-50
2021/12/19 15:18:35;;;;;;;4.97;4.40;;;;;;;;;;5014242;28;20405;-49
2021/12/19 15:21:01;;;;;;;6.40;5.20;;;;;;;;;;5014376;28;20926;-49
2021/12/19 15:23:27;;;;;;;7.53;5.50;;;;;;;;;;5014390;28;20408;-49
2021/12/19 15:25:53;;;;;;;7.77;5.60;;;;;;;;;;5013358;28;20599;-49
2021/12/19 15:28:22;;;;;;;9.50;5.73;;;;;;;;;;5014504;28;20518;-49
2021/12/19 15:30:49;;;;;;;6.43;5.00;;;;;;;;;;5014261;28;20482;-50
2021/12/19 15:33:16;;;;;;;6.10;5.50;;;;;;;;;;5014033;28;20400;-49
2021/12/19 15:35:42;;;;;;;9.93;7.00;;;;;;;;;;5013410;28;20566;-50
2021/12/19 15:38:08;;;;;;;6.77;6.10;;;;;;;;;;5013947;28;20404;-49
2021/12/19 15:40:34;;;;;;;10.20;7.37;;;;;;;;;;5013860;28;20411;-50
2021/12/19 15:43:01;;;;;;;10.27;8.37;;;;;;;;;;5014051;28;20910;-49
2021/12/19 15:45:28;;;;;;;12.53;10.20;;;;;;;;;;5012918;28;20482;-49
2021/12/19 15:47:54;;;;;;;10.83;9.10;;;;;;;;;;5013695;28;20486;-50
2021/12/19 15:50:20;;;;;;;10.73;9.50;;;;;;;;;;5014608;28;20435;-50
2021/12/19 15:52:46;;;;;;;16.73;10.60;;;;;;;;;;5014397;28;20420;-51
2021/12/19 15:55:14;;;;;;;13.87;10.67;;;;;;;;;;5013864;28;20495;-50